Aérodrome :
LOGIN :

S'inscrire | Disclaimer

   EN    FR    IT 

 










Légende :    VFR   VFR Marginal   IFR   IFR Intensif   IFR Très Intensif
Visi : 
Plafond : 
>= 8 km
>= 3000ft
5 à 8 km
1000 à 3000 ft
1500m à 5 km
500 à 1000 ft
800 à 1500m
200 à 500 ft
< 800m
< 200 ft
Symboles :   Orages  Brouillard  Fortes neiges  Fortes précipitations  Vent > 20 kt
SIGMETs :   Divers  Orages  Givrage  Turbulence  Onde Orograph.  Cendres Volcan.







- Altitude de l'aérodrome : 17 ft
- Code IATA : MPL
- Voir les cartes d'approche


LFMT - Montpellier Méditerranée

DERNIER METAR :
  • 211730Z AUTO 22007KT CAVOK 14/05 Q1026 NOSIG

METARs EXPIRÉS :
  • 211700Z AUTO 23008KT CAVOK 15/04 Q1026 NOSIG
  • 211630Z AUTO 23009KT CAVOK 15/03 Q1026 NOSIG
  • 211600Z AUTO 22008KT CAVOK 15/02 Q1027 NOSIG
  • 211530Z AUTO 21007KT CAVOK 16/03 Q1027 NOSIG
  • 211500Z AUTO 20008KT CAVOK 16/01 Q1027 NOSIG

TAF TAF LFMT
Valide du 21 à 15h jusqu'au 22 à 15h UTC


211400Z 2115/2215 20010KT CAVOK
BECMG 2118/2121 VRB05KT
BECMG 2212/2215 21010KT
ATIS : +33 4 67 13 11 70
Pas de NOTAMs connus pour ce terrain.



MET'MAP, la Météo Aéronautique d'un coup d'oeil ! - Copyright ORBIFLY Décembre 2007 - Disclaimer

ORBIFLY MET'MAP TEAM :

Programmation & Développement : Alexandra Zaïnal
Conception & Développement : Baudouin d'Aumeries
Co-Programmation & Développement : Marc-Olivier Méhu
Soutien technique & logistique : Manuel Goepfert

Contact : metmap@orbifly.com




SOURCES & CREDITS :

   NOAA